Time;durP1;ratioP1;P1;durP2;ratioP2;P2;SDS_P1;SDS_P2;PMS_P1;PMS_P2;Temp;Humidity;BMP_temperature;BMP_pressure;BME280_temperature;BME280_humidity;BME280_pressure;Samples;Min_cycle;Max_cycle;Signal;HPM_P1;HPM_P2
2022/07/19 00:00:07;;;;;;;2.33;1.58;;;20.40;47.00;;;;;;5057586;28;20464;-59
2022/07/19 00:02:33;;;;;;;2.15;1.35;;;20.40;47.80;;;;;;5025524;28;20084;-60
2022/07/19 00:04:58;;;;;;;8.82;1.73;;;20.30;47.10;;;;;;5047691;28;20037;-61
2022/07/19 00:07:24;;;;;;;4.97;1.80;;;20.30;47.20;;;;;;5066023;28;20036;-59
2022/07/19 00:09:50;;;;;;;1.98;1.45;;;20.20;47.00;;;;;;5043917;28;20041;-59
2022/07/19 00:12:16;;;;;;;3.95;1.80;;;20.20;46.90;;;;;;5064232;28;20093;-58
2022/07/19 00:14:41;;;;;;;3.28;1.48;;;20.10;46.90;;;;;;5046917;28;20029;-58
2022/07/19 00:17:07;;;;;;;4.60;1.50;;;20.10;47.00;;;;;;5065600;28;20049;-58
2022/07/19 00:19:33;;;;;;;3.72;1.80;;;20.00;47.30;;;;;;5044763;28;20033;-59
2022/07/19 00:21:58;;;;;;;5.03;1.73;;;20.00;47.70;;;;;;5048274;28;20057;-58
2022/07/19 00:24:24;;;;;;;3.90;1.90;;;19.90;47.80;;;;;;5048123;28;20039;-58
2022/07/19 00:26:50;;;;;;;4.78;1.60;;;19.90;48.20;;;;;;5048416;28;20029;-60
2022/07/19 00:29:15;;;;;;;2.60;1.83;;;19.90;48.10;;;;;;5049031;28;20046;-58
2022/07/19 00:31:41;;;;;;;4.07;1.60;;;19.80;48.00;;;;;;5044700;28;20048;-60
2022/07/19 00:34:07;;;;;;;2.22;1.60;;;19.80;48.00;;;;;;5051040;28;20048;-59
2022/07/19 00:36:33;;;;;;;1.88;1.60;;;19.80;48.10;;;;;;5054982;28;20053;-60
2022/07/19 00:38:59;;;;;;;1.80;1.50;;;19.80;48.20;;;;;;5051960;28;20032;-58
2022/07/19 00:41:25;;;;;;;2.35;1.70;;;19.70;48.10;;;;;;5052348;28;20044;-59
2022/07/19 00:43:51;;;;;;;4.35;1.65;;;19.70;48.10;;;;;;5050640;28;20033;-60
2022/07/19 00:46:21;;;;;;;2.55;1.85;;;19.70;48.50;;;;;;5056580;28;20544;-59
2022/07/19 00:48:48;;;;;;;2.25;1.50;;;19.70;49.10;;;;;;5070856;28;20064;-61
2022/07/19 00:51:16;;;;;;;3.20;1.92;;;19.60;48.90;;;;;;5065652;28;20025;-60
2022/07/19 00:53:43;;;;;;;2.00;1.73;;;19.60;49.00;;;;;;5043617;28;20081;-59
2022/07/19 00:56:10;;;;;;;1.98;1.65;;;19.50;49.10;;;;;;5061155;28;20084;-59
2022/07/19 00:58:38;;;;;;;2.95;1.58;;;19.50;49.40;;;;;;5041941;28;20021;-59
2022/07/19 01:01:05;;;;;;;2.35;1.67;;;19.50;49.50;;;;;;5043723;28;20121;-59
2022/07/19 01:03:35;;;;;;;2.65;1.75;;;19.50;49.40;;;;;;5044318;28;20026;-61
2022/07/19 01:06:01;;;;;;;2.72;1.75;;;19.50;49.70;;;;;;5050705;28;20029;-58
2022/07/19 01:08:26;;;;;;;2.15;1.80;;;19.40;49.40;;;;;;5049012;28;20447;-59
2022/07/19 01:10:52;;;;;;;2.17;1.63;;;19.40;49.40;;;;;;5046961;28;20033;-59
2022/07/19 01:13:18;;;;;;;2.60;1.73;;;19.40;49.40;;;;;;5047205;28;20036;-60
2022/07/19 01:15:44;;;;;;;2.25;1.85;;;19.30;49.50;;;;;;5061889;28;20116;-59
2022/07/19 01:18:10;;;;;;;4.90;2.00;;;19.30;49.70;;;;;;5044407;28;20036;-61
2022/07/19 01:20:36;;;;;;;5.88;2.20;;;19.30;49.70;;;;;;5051132;28;20033;-60
2022/07/19 01:23:02;;;;;;;2.72;1.80;;;19.20;49.90;;;;;;5048100;28;20031;-60
2022/07/19 01:25:33;;;;;;;4.20;1.75;;;19.20;50.10;;;;;;5051418;28;20075;-60
2022/07/19 01:27:59;;;;;;;4.70;2.03;;;19.20;50.00;;;;;;5060992;28;20052;-59
2022/07/19 01:30:26;;;;;;;3.05;1.83;;;19.20;49.90;;;;;;5057756;28;20045;-60
2022/07/19 01:32:53;;;;;;;5.22;1.80;;;19.10;50.00;;;;;;5057332;28;20033;-60
2022/07/19 01:35:20;;;;;;;6.03;1.70;;;19.10;50.20;;;;;;5044281;28;20079;-60
2022/07/19 01:37:48;;;;;;;1.83;1.60;;;19.10;49.90;;;;;;5036401;28;20089;-60
2022/07/19 01:40:15;;;;;;;5.18;1.67;;;19.10;50.00;;;;;;5040336;28;20021;-60
2022/07/19 01:42:41;;;;;;;2.65;1.88;;;19.00;50.80;;;;;;5045730;28;20030;-60
2022/07/19 01:45:09;;;;;;;3.30;1.85;;;19.00;50.20;;;;;;5037994;28;20031;-61
2022/07/19 01:47:35;;;;;;;4.28;1.95;;;19.00;50.10;;;;;;5042616;28;20041;-59
2022/07/19 01:50:01;;;;;;;3.22;2.17;;;19.00;50.10;;;;;;5031478;28;20038;-59
2022/07/19 01:52:26;;;;;;;5.85;2.00;;;18.90;50.10;;;;;;5043921;28;20115;-59
2022/07/19 01:54:52;;;;;;;4.40;1.90;;;18.90;50.10;;;;;;5047003;28;20057;-60
2022/07/19 01:57:18;;;;;;;2.20;1.65;;;18.90;50.20;;;;;;5049300;28;20033;-59
2022/07/19 01:59:43;;;;;;;2.42;1.73;;;18.90;50.50;;;;;;5047454;28;20030;-59
2022/07/19 02:02:09;;;;;;;3.88;1.70;;;18.90;50.70;;;;;;5051451;28;20022;-61
2022/07/19 02:04:35;;;;;;;2.97;1.63;;;18.80;50.80;;;;;;5052006;28;20403;-59
2022/07/19 02:07:01;;;;;;;4.32;2.00;;;18.80;50.70;;;;;;5051262;28;20087;-61
2022/07/19 02:09:27;;;;;;;5.38;2.00;;;18.80;50.90;;;;;;5054057;28;20941;-60
2022/07/19 02:11:52;;;;;;;6.38;1.77;;;18.80;50.80;;;;;;5051099;28;20033;-60
2022/07/19 02:14:18;;;;;;;2.20;1.75;;;18.70;50.80;;;;;;5062657;28;20025;-59
2022/07/19 02:16:44;;;;;;;2.58;1.80;;;18.70;50.90;;;;;;5047063;28;20041;-61
2022/07/19 02:19:10;;;;;;;3.42;1.80;;;18.70;50.80;;;;;;5051645;28;20056;-60
2022/07/19 02:21:37;;;;;;;2.90;2.00;;;18.60;51.00;;;;;;5067838;28;20051;-61
2022/07/19 02:24:06;;;;;;;16.58;1.73;;;18.60;51.20;;;;;;5047025;28;20033;-61
2022/07/19 02:26:32;;;;;;;3.53;1.90;;;18.60;51.30;;;;;;5058861;28;20068;-59
2022/07/19 02:28:58;;;;;;;2.92;1.60;;;18.60;51.30;;;;;;5061390;28;20106;-61
2022/07/19 02:31:23;;;;;;;3.78;1.98;;;18.50;51.30;;;;;;5048323;28;20041;-59
2022/07/19 02:33:49;;;;;;;5.35;1.85;;;18.50;51.40;;;;;;5051415;28;20018;-59
2022/07/19 02:36:16;;;;;;;5.88;1.60;;;18.50;51.30;;;;;;5064456;28;20037;-60
2022/07/19 02:38:42;;;;;;;2.75;1.80;;;18.50;51.20;;;;;;5052149;28;20025;-60
2022/07/19 02:41:08;;;;;;;6.57;1.83;;;18.40;51.40;;;;;;5047391;28;20022;-60
2022/07/19 02:43:34;;;;;;;2.05;1.85;;;18.40;51.40;;;;;;5061910;28;20056;-59
2022/07/19 02:45:59;;;;;;;3.50;2.10;;;18.40;51.30;;;;;;5047558;28;20029;-61
2022/07/19 02:48:25;;;;;;;2.45;2.10;;;18.40;51.50;;;;;;5045979;28;20048;-61
2022/07/19 02:50:51;;;;;;;5.43;2.70;;;18.30;51.40;;;;;;5047962;28;20029;-59
2022/07/19 02:53:16;;;;;;;3.55;2.13;;;18.30;51.60;;;;;;5060964;28;20084;-60
2022/07/19 02:55:42;;;;;;;3.63;2.45;;;18.20;51.80;;;;;;5060466;28;20021;-59
2022/07/19 02:58:08;;;;;;;6.20;2.13;;;18.20;52.10;;;;;;5059627;28;20029;-59
2022/07/19 03:00:34;;;;;;;1.88;1.67;;;18.20;52.10;;;;;;5041277;28;20026;-59
2022/07/19 03:03:43;;;;;;;4.32;1.90;;;18.20;52.30;;;;;;5057592;28;20034;-59
2022/07/19 03:05:46;;;;;;;3.42;1.77;;;18.10;52.40;;;;;;5027845;28;20034;-59
2022/07/19 03:08:12;;;;;;;2.25;1.63;;;18.10;52.40;;;;;;5048211;28;20038;-59
2022/07/19 03:10:37;;;;;;;2.42;1.60;;;18.10;52.30;;;;;;5047417;28;20096;-60
2022/07/19 03:13:04;;;;;;;1.85;1.73;;;18.00;52.20;;;;;;5055938;28;20083;-59
2022/07/19 03:15:30;;;;;;;2.10;1.85;;;18.00;52.30;;;;;;5046466;28;20033;-60
2022/07/19 03:17:55;;;;;;;3.95;2.10;;;18.00;52.40;;;;;;5052821;28;20044;-59
2022/07/19 03:20:21;;;;;;;2.72;1.80;;;18.00;52.50;;;;;;5040886;28;20049;-59
2022/07/19 03:22:47;;;;;;;3.65;1.58;;;17.90;52.70;;;;;;5047938;28;20025;-60
2022/07/19 03:25:12;;;;;;;4.00;1.95;;;17.90;52.70;;;;;;5056486;28;20064;-60
2022/07/19 03:27:39;;;;;;;2.60;1.90;;;17.90;52.70;;;;;;5046538;28;20037;-61
2022/07/19 03:30:06;;;;;;;3.10;1.90;;;17.90;52.80;;;;;;5049474;28;20049;-59
2022/07/19 03:32:31;;;;;;;2.17;1.77;;;17.80;53.00;;;;;;5051558;28;20037;-60
2022/07/19 03:34:57;;;;;;;2.15;1.90;;;17.80;52.80;;;;;;5051375;28;20057;-59
2022/07/19 03:37:23;;;;;;;6.15;1.90;;;17.80;53.00;;;;;;5051957;28;20036;-58
2022/07/19 03:39:49;;;;;;;5.82;2.00;;;17.70;53.20;;;;;;5049989;28;20026;-59
2022/07/19 03:42:14;;;;;;;4.63;1.95;;;17.70;53.40;;;;;;5048677;28;20052;-59
2022/07/19 03:44:40;;;;;;;2.13;1.90;;;17.70;54.10;;;;;;5051749;28;20041;-59
2022/07/19 03:47:06;;;;;;;2.85;1.92;;;17.70;53.50;;;;;;5063983;28;20029;-61
2022/07/19 03:49:31;;;;;;;5.38;2.05;;;17.70;53.60;;;;;;5053364;28;20033;-59
2022/07/19 03:51:57;;;;;;;2.75;2.13;;;17.60;53.90;;;;;;5065977;28;20053;-60
2022/07/19 03:54:23;;;;;;;2.17;1.98;;;17.60;53.80;;;;;;5044490;28;20045;-59
2022/07/19 03:56:48;;;;;;;2.80;2.03;;;17.60;54.00;;;;;;5063886;28;20029;-60
2022/07/19 03:59:14;;;;;;;3.35;1.67;;;17.60;53.90;;;;;;5051316;28;20472;-61
2022/07/19 04:01:40;;;;;;;5.20;1.60;;;17.60;54.10;;;;;;5060420;28;20036;-59
2022/07/19 04:04:06;;;;;;;5.97;1.90;;;17.60;53.90;;;;;;5060271;28;20021;-59
2022/07/19 04:06:32;;;;;;;2.22;1.60;;;17.60;53.80;;;;;;5046723;28;20029;-58
2022/07/19 04:08:58;;;;;;;6.07;1.75;;;17.60;53.80;;;;;;5057335;28;20096;-60
2022/07/19 04:11:23;;;;;;;2.90;1.80;;;17.60;54.00;;;;;;5045970;28;20049;-58
2022/07/19 04:13:49;;;;;;;4.57;2.03;;;17.60;54.10;;;;;;5044511;28;20025;-59
2022/07/19 04:16:15;;;;;;;2.72;1.63;;;17.50;54.10;;;;;;5065548;28;20434;-59
2022/07/19 04:18:40;;;;;;;3.28;1.92;;;17.60;54.20;;;;;;5046111;28;20056;-60
2022/07/19 04:21:06;;;;;;;2.78;1.70;;;17.60;54.30;;;;;;5046860;28;20017;-58
2022/07/19 04:23:32;;;;;;;3.75;1.83;;;17.60;54.50;;;;;;5042693;28;20030;-59
2022/07/19 04:25:58;;;;;;;2.63;1.80;;;17.60;54.70;;;;;;5057858;28;20084;-59
2022/07/19 04:28:24;;;;;;;11.05;1.90;;;17.70;54.70;;;;;;5047983;28;20068;-59
2022/07/19 04:30:50;;;;;;;2.63;2.13;;;17.70;54.60;;;;;;5039910;28;20025;-62
2022/07/19 04:33:17;;;;;;;3.75;1.92;;;17.80;54.60;;;;;;5046449;28;20040;-58
2022/07/19 04:35:44;;;;;;;5.00;1.90;;;17.80;54.90;;;;;;5044974;28;20030;-59
2022/07/19 04:38:10;;;;;;;5.43;1.90;;;17.90;54.70;;;;;;5050409;28;20384;-58
2022/07/19 04:40:36;;;;;;;3.10;1.98;;;18.00;54.90;;;;;;5044957;28;20025;-59
2022/07/19 04:43:01;;;;;;;7.10;1.95;;;18.10;54.60;;;;;;5048298;28;20035;-59
2022/07/19 04:45:27;;;;;;;6.85;2.05;;;18.10;54.50;;;;;;5043183;28;20067;-58
2022/07/19 04:47:53;;;;;;;3.83;1.80;;;18.20;54.40;;;;;;5051575;28;20111;-59
2022/07/19 04:50:19;;;;;;;2.00;1.65;;;18.30;54.30;;;;;;5048040;28;20021;-59
2022/07/19 04:52:45;;;;;;;7.40;2.25;;;18.30;54.20;;;;;;5042209;28;20045;-58
2022/07/19 04:55:10;;;;;;;4.60;2.20;;;18.40;54.20;;;;;;5049961;28;20080;-58
2022/07/19 04:57:36;;;;;;;4.22;2.20;;;18.50;54.30;;;;;;5048606;28;20052;-59
2022/07/19 05:00:05;;;;;;;5.93;2.47;;;18.50;54.20;;;;;;5044006;28;20025;-59
2022/07/19 05:02:31;;;;;;;12.25;2.45;;;18.60;54.20;;;;;;5042841;28;20036;-59
2022/07/19 05:04:57;;;;;;;5.00;1.80;;;18.70;54.30;;;;;;5044003;28;20038;-60
2022/07/19 05:07:22;;;;;;;4.55;1.90;;;18.80;54.00;;;;;;5043905;28;20065;-60
2022/07/19 05:09:48;;;;;;;7.57;2.03;;;18.90;53.80;;;;;;5058434;28;20029;-60
2022/07/19 05:12:15;;;;;;;8.90;2.70;;;19.00;53.70;;;;;;5054912;28;20064;-59
2022/07/19 05:14:40;;;;;;;11.65;2.33;;;19.10;53.70;;;;;;5046569;28;20068;-59
2022/07/19 05:17:06;;;;;;;9.60;2.17;;;19.20;53.70;;;;;;5044576;28;20419;-59
2022/07/19 05:19:32;;;;;;;6.25;2.42;;;19.30;53.60;;;;;;5042686;28;20025;-60
2022/07/19 05:21:58;;;;;;;5.07;2.30;;;19.30;53.50;;;;;;5043603;28;20108;-59
2022/07/19 05:24:23;;;;;;;5.80;2.20;;;19.50;53.20;;;;;;5047794;28;20033;-61
2022/07/19 05:26:50;;;;;;;7.68;2.83;;;19.60;53.10;;;;;;5039008;28;20061;-60
2022/07/19 05:29:16;;;;;;;7.30;2.50;;;19.60;53.10;;;;;;5056490;28;20053;-60
2022/07/19 05:31:42;;;;;;;12.23;2.72;;;19.80;52.90;;;;;;5048279;28;20043;-58
2022/07/19 05:34:08;;;;;;;7.45;2.50;;;19.90;52.80;;;;;;5066917;28;20016;-59
2022/07/19 05:36:35;;;;;;;4.40;2.30;;;20.00;53.20;;;;;;5056049;28;20037;-59
2022/07/19 05:39:00;;;;;;;10.20;2.10;;;20.10;52.40;;;;;;5049418;28;20544;-60
2022/07/19 05:41:26;;;;;;;11.48;2.28;;;20.30;52.30;;;;;;5057046;28;20041;-61
2022/07/19 05:43:52;;;;;;;6.60;2.58;;;20.40;52.30;;;;;;5056827;28;20032;-60
2022/07/19 05:46:18;;;;;;;12.98;2.47;;;20.50;52.40;;;;;;5065000;28;20051;-59
2022/07/19 05:48:43;;;;;;;5.50;2.33;;;20.70;52.30;;;;;;5051054;28;20141;-59
2022/07/19 05:51:09;;;;;;;9.35;2.40;;;20.80;51.90;;;;;;5064354;28;20447;-58
2022/07/19 05:53:36;;;;;;;6.80;2.33;;;21.00;51.70;;;;;;5054080;28;20029;-59
2022/07/19 05:56:02;;;;;;;10.85;2.55;;;21.20;51.70;;;;;;5047523;28;20032;-59
2022/07/19 05:58:28;;;;;;;13.10;2.90;;;21.30;51.50;;;;;;5068052;28;20139;-60
2022/07/19 06:03:38;;;;;;;7.88;2.13;;;21.60;51.10;;;;;;5029309;28;20376;-58
2022/07/19 06:06:04;;;;;;;5.43;2.08;;;21.80;50.80;;;;;;5047382;28;20060;-60
2022/07/19 06:08:30;;;;;;;5.93;2.60;;;21.90;50.60;;;;;;5067713;28;20056;-60
2022/07/19 06:10:55;;;;;;;6.65;2.33;;;22.10;50.50;;;;;;5047435;28;20052;-59
2022/07/19 06:13:22;;;;;;;9.10;2.50;;;22.30;50.20;;;;;;5059726;28;20155;-59
2022/07/19 06:15:47;;;;;;;9.02;2.67;;;22.40;50.10;;;;;;5049334;28;20049;-60
2022/07/19 06:18:13;;;;;;;8.50;2.80;;;22.60;49.80;;;;;;5066655;28;20029;-58
2022/07/19 06:20:39;;;;;;;12.65;2.92;;;22.70;49.70;;;;;;5048103;28;20041;-59
2022/07/19 06:23:04;;;;;;;9.30;2.58;;;22.90;49.50;;;;;;5049439;28;20028;-60
2022/07/19 06:25:30;;;;;;;11.88;3.80;;;23.00;49.10;;;;;;5054854;28;20563;-59
2022/07/19 06:27:56;;;;;;;4.80;2.10;;;23.20;48.90;;;;;;5047954;28;20029;-60
2022/07/19 06:30:21;;;;;;;15.43;2.50;;;23.30;48.70;;;;;;5048680;28;20057;-60
2022/07/19 06:32:47;;;;;;;10.52;2.15;;;23.50;48.30;;;;;;5046006;28;20033;-59
2022/07/19 06:35:13;;;;;;;28.60;2.97;;;23.70;48.00;;;;;;5049266;28;20031;-58
2022/07/19 06:37:38;;;;;;;7.90;1.75;;;23.80;48.00;;;;;;5046936;28;20029;-59
2022/07/19 06:40:05;;;;;;;7.38;2.33;;;24.00;47.70;;;;;;5050679;28;20037;-59
2022/07/19 06:42:31;;;;;;;6.90;2.22;;;24.20;47.70;;;;;;5054010;28;20030;-59
2022/07/19 06:44:59;;;;;;;8.00;2.10;;;24.40;47.30;;;;;;5052401;28;20079;-58
2022/07/19 06:47:24;;;;;;;6.00;2.10;;;24.50;46.60;;;;;;5037804;28;20029;-58
2022/07/19 06:49:50;;;;;;;7.93;2.20;;;24.70;46.20;;;;;;5050545;28;20563;-59
2022/07/19 06:52:15;;;;;;;8.20;1.80;;;24.90;46.00;;;;;;5047328;28;20034;-59
2022/07/19 06:54:41;;;;;;;14.05;2.60;;;25.00;45.80;;;;;;5047448;28;20021;-59
2022/07/19 06:57:08;;;;;;;9.15;2.20;;;25.10;45.60;;;;;;5047786;28;20049;-59
2022/07/19 06:59:34;;;;;;;15.80;2.15;;;25.30;45.40;;;;;;5060141;28;20021;-59
2022/07/19 07:01:59;;;;;;;5.53;1.90;;;25.40;45.10;;;;;;5043498;28;20076;-59
2022/07/19 07:04:25;;;;;;;3.80;2.10;;;25.60;45.00;;;;;;5043214;28;20033;-60
2022/07/19 07:06:50;;;;;;;3.58;1.63;;;25.70;45.00;;;;;;5046210;28;20114;-60
2022/07/19 07:09:17;;;;;;;6.13;2.22;;;25.80;44.90;;;;;;5048619;28;20048;-59
2022/07/19 07:11:43;;;;;;;7.53;2.08;;;26.00;44.80;;;;;;5052869;28;20025;-60
2022/07/19 07:14:08;;;;;;;8.55;2.03;;;26.10;44.20;;;;;;5052554;28;20022;-58
2022/07/19 07:16:34;;;;;;;4.07;2.00;;;26.30;44.40;;;;;;5055299;28;20408;-60
2022/07/19 07:19:00;;;;;;;2.85;1.45;;;26.40;44.10;;;;;;5048339;28;20025;-59
2022/07/19 07:21:25;;;;;;;2.35;1.17;;;26.50;43.40;;;;;;5044595;28;20030;-60
2022/07/19 07:23:51;;;;;;;3.05;1.20;;;26.70;43.50;;;;;;5048995;28;20037;-59
2022/07/19 07:26:17;;;;;;;3.50;1.45;;;26.80;43.00;;;;;;5041141;28;20026;-58
2022/07/19 07:28:42;;;;;;;3.38;1.42;;;26.90;42.80;;;;;;5049412;28;20060;-60
2022/07/19 07:31:08;;;;;;;2.35;1.25;;;27.10;42.90;;;;;;5042329;28;20026;-59
2022/07/19 07:33:34;;;;;;;7.88;1.20;;;27.20;42.40;;;;;;5047132;28;20078;-59
2022/07/19 07:35:59;;;;;;;1.88;1.13;;;27.40;41.80;;;;;;5047078;28;20033;-59
2022/07/19 07:38:25;;;;;;;8.88;1.38;;;27.50;41.40;;;;;;5058994;28;20029;-60
2022/07/19 07:40:51;;;;;;;4.10;1.13;;;27.70;41.10;;;;;;5043404;28;20164;-59
2022/07/19 07:43:16;;;;;;;4.63;1.15;;;27.80;40.80;;;;;;5044018;28;20021;-60
2022/07/19 07:45:42;;;;;;;2.15;1.52;;;28.00;40.60;;;;;;5050114;28;20052;-59
2022/07/19 07:48:08;;;;;;;4.47;1.17;;;28.10;40.40;;;;;;5048022;28;20030;-60
2022/07/19 07:50:34;;;;;;;2.97;1.33;;;28.20;40.20;;;;;;5047183;28;20034;-60
2022/07/19 07:52:59;;;;;;;5.18;1.40;;;28.40;40.10;;;;;;5051716;28;20030;-62
2022/07/19 07:55:25;;;;;;;4.00;1.25;;;28.50;39.50;;;;;;5051880;28;20497;-62
2022/07/19 07:57:51;;;;;;;2.80;1.40;;;28.50;39.60;;;;;;5040640;28;20030;-61
2022/07/19 08:00:18;;;;;;;6.95;1.50;;;28.70;40.00;;;;;;5044458;28;20068;-62
2022/07/19 08:02:45;;;;;;;3.13;1.40;;;28.80;39.20;;;;;;5050545;28;20039;-62
2022/07/19 08:05:11;;;;;;;7.85;1.85;;;29.00;39.10;;;;;;5044792;28;20053;-62
2022/07/19 08:07:38;;;;;;;3.20;1.40;;;29.10;38.80;;;;;;5054608;28;20032;-62
2022/07/19 08:10:08;;;;;;;2.78;1.40;;;29.20;38.70;;;;;;5043325;28;20018;-61
2022/07/19 08:12:34;;;;;;;3.95;1.63;;;29.30;38.70;;;;;;5048293;28;20025;-62
2022/07/19 08:14:59;;;;;;;3.72;1.08;;;29.50;38.40;;;;;;5045719;28;20026;-62
2022/07/19 08:17:25;;;;;;;3.42;0.90;;;29.60;38.00;;;;;;5046219;28;20030;-61
2022/07/19 08:19:51;;;;;;;2.15;1.00;;;29.70;37.10;;;;;;5048102;28;20026;-62
2022/07/19 08:22:18;;;;;;;0.77;0.70;;;29.80;36.50;;;;;;5038410;28;20030;-61
2022/07/19 08:24:44;;;;;;;1.55;1.02;;;29.90;35.90;;;;;;5045291;28;20108;-61
2022/07/19 08:27:10;;;;;;;1.75;0.80;;;30.00;35.70;;;;;;5044345;28;20025;-62
2022/07/19 08:29:36;;;;;;;1.73;0.77;;;30.10;35.50;;;;;;5045042;28;20071;-62
2022/07/19 08:32:02;;;;;;;6.18;1.17;;;30.20;35.50;;;;;;5047128;28;20085;-61
2022/07/19 08:34:28;;;;;;;3.85;1.50;;;30.30;35.40;;;;;;5048225;28;20044;-62
2022/07/19 08:36:53;;;;;;;10.98;1.38;;;30.40;34.90;;;;;;5050322;28;20389;-61
2022/07/19 08:39:19;;;;;;;6.90;2.08;;;30.50;33.60;;;;;;5044916;28;20063;-63
2022/07/19 08:41:45;;;;;;;2.72;1.25;;;30.50;33.90;;;;;;5047183;28;20125;-62
2022/07/19 08:44:12;;;;;;;2.47;0.90;;;30.70;34.00;;;;;;5045968;28;20179;-62
2022/07/19 08:46:40;;;;;;;2.83;1.08;;;30.80;33.80;;;;;;5050399;28;20039;-61
2022/07/19 08:49:07;;;;;;;2.05;1.17;;;30.90;33.30;;;;;;5039959;28;20065;-62
2022/07/19 08:51:33;;;;;;;4.65;1.10;;;31.00;33.80;;;;;;5042131;28;20098;-61
2022/07/19 08:53:59;;;;;;;7.18;1.10;;;31.10;33.00;;;;;;5044864;28;20045;-62
2022/07/19 08:59:09;;;;;;;2.65;0.95;;;31.20;33.20;;;;;;5039862;28;20044;-62
2022/07/19 09:01:36;;;;;;;3.13;1.00;;;31.30;32.60;;;;;;5038926;28;20033;-62
2022/07/19 09:04:05;;;;;;;6.20;1.33;;;31.40;32.50;;;;;;5046126;28;20047;-62
2022/07/19 09:06:41;;;;;;;4.15;1.00;;;31.40;31.90;;;;;;5041271;28;20121;-61
2022/07/19 09:09:08;;;;;;;1.15;0.82;;;31.50;31.90;;;;;;5044822;28;20064;-61
2022/07/19 09:11:48;;;;;;;4.70;0.93;;;31.60;32.10;;;;;;5039638;28;20026;-61
2022/07/19 09:14:16;;;;;;;5.10;1.10;;;31.70;32.10;;;;;;5046637;28;20086;-61
2022/07/19 09:16:52;;;;;;;4.03;1.13;;;31.80;32.00;;;;;;5052172;28;20014;-61
2022/07/19 09:19:18;;;;;;;3.20;1.40;;;31.90;31.70;;;;;;5047085;28;20473;-62
2022/07/19 09:21:57;;;;;;;5.28;1.30;;;32.00;31.70;;;;;;5046779;28;20027;-62
2022/07/19 09:24:24;;;;;;;7.95;1.30;;;32.00;31.00;;;;;;5048139;28;20039;-62
2022/07/19 09:27:03;;;;;;;2.97;1.27;;;32.20;31.70;;;;;;5044104;28;20029;-62
2022/07/19 09:29:31;;;;;;;2.45;1.08;;;32.20;30.80;;;;;;5041869;28;20136;-62
2022/07/19 09:32:12;;;;;;;1.60;1.10;;;32.20;31.40;;;;;;5051861;28;20384;-62
2022/07/19 09:34:42;;;;;;;7.43;1.30;;;32.30;30.90;;;;;;5050792;28;20041;-61
2022/07/19 09:37:13;;;;;;;2.50;1.25;;;32.40;31.30;;;;;;5041423;28;20028;-61
2022/07/19 09:39:45;;;;;;;1.92;1.10;;;32.40;30.90;;;;;;5046435;28;20029;-62
2022/07/19 09:42:15;;;;;;;6.93;1.20;;;32.50;31.40;;;;;;5045332;28;20066;-62
2022/07/19 09:44:42;;;;;;;2.92;1.10;;;32.50;30.80;;;;;;5027568;28;20551;-61
2022/07/19 09:47:08;;;;;;;5.15;1.15;;;32.60;30.40;;;;;;5063746;28;20098;-60
2022/07/19 09:49:34;;;;;;;2.55;1.15;;;32.60;31.00;;;;;;5041994;28;20033;-63
2022/07/19 09:52:01;;;;;;;3.10;1.10;;;32.60;30.70;;;;;;5065109;28;20029;-62
2022/07/19 09:54:29;;;;;;;4.03;1.42;;;32.70;31.00;;;;;;5044080;28;20029;-61
2022/07/19 09:56:56;;;;;;;5.00;1.30;;;32.70;30.30;;;;;;5043898;28;20025;-61
2022/07/19 09:59:24;;;;;;;6.30;1.23;;;32.90;30.00;;;;;;5034037;28;20526;-61
2022/07/19 10:01:53;;;;;;;3.78;1.00;;;32.90;30.00;;;;;;5045054;28;20048;-62
2022/07/19 10:04:22;;;;;;;1.58;1.10;;;33.00;30.00;;;;;;5064953;28;20037;-61
2022/07/19 10:06:49;;;;;;;2.85;1.20;;;33.00;30.00;;;;;;5041852;28;20026;-61
2022/07/19 10:09:17;;;;;;;3.53;1.30;;;33.10;30.00;;;;;;5064136;28;20041;-62
2022/07/19 10:11:43;;;;;;;3.90;1.30;;;33.20;29.70;;;;;;5043695;28;20026;-62
2022/07/19 10:14:09;;;;;;;2.15;1.30;;;33.30;29.50;;;;;;5037814;28;20061;-60
2022/07/19 10:16:53;;;;;;;2.35;1.40;;;33.40;29.50;;;;;;5055696;28;20029;-61
2022/07/19 10:19:22;;;;;;;3.15;1.48;;;33.50;29.00;;;;;;5067942;28;20096;-62
2022/07/19 10:21:49;;;;;;;5.13;1.20;;;33.60;28.40;;;;;;5047805;28;20022;-61
2022/07/19 10:24:54;;;;;;;2.00;0.95;;;33.60;28.70;;;;;;5054600;28;20026;-62
2022/07/19 10:27:25;;;;;;;4.03;1.20;;;33.80;28.10;;;;;;5035841;28;20059;-62
2022/07/19 10:30:11;;;;;;;3.28;1.00;;;33.80;27.80;;;;;;5064154;28;20068;-61
2022/07/19 10:32:38;;;;;;;6.43;1.27;;;33.90;28.40;;;;;;5037152;28;20470;-61
2022/07/19 10:35:25;;;;;;;2.10;1.40;;;34.00;28.50;;;;;;5065977;28;20021;-62
2022/07/19 10:37:53;;;;;;;4.22;1.10;;;34.10;27.80;;;;;;5038446;28;20055;-60
2022/07/19 10:40:43;;;;;;;2.38;1.20;;;34.20;28.40;;;;;;5059933;28;20043;-60
2022/07/19 10:43:16;;;;;;;2.22;1.20;;;34.30;26.80;;;;;;5067366;28;20029;-62
2022/07/19 10:46:04;;;;;;;6.00;1.40;;;34.40;27.20;;;;;;5040537;28;20030;-61
2022/07/19 10:48:37;;;;;;;2.60;1.02;;;34.50;27.70;;;;;;5036645;28;20052;-62
2022/07/19 10:51:03;;;;;;;5.82;1.33;;;34.50;27.40;;;;;;5065729;28;20025;-61
2022/07/19 10:53:41;;;;;;;2.65;1.20;;;34.60;27.90;;;;;;5048251;28;20565;-61
2022/07/19 10:56:16;;;;;;;2.28;1.50;;;34.70;27.90;;;;;;5053035;28;20030;-61
2022/07/19 10:58:52;;;;;;;4.35;1.30;;;34.80;27.00;;;;;;5027849;28;20092;-61
2022/07/19 11:01:20;;;;;;;3.45;1.13;;;34.90;26.90;;;;;;5039440;28;20029;-62
2022/07/19 11:03:47;;;;;;;5.30;1.67;;;35.00;27.50;;;;;;5055030;28;20025;-62
2022/07/19 11:06:26;;;;;;;3.20;1.25;;;35.10;27.50;;;;;;5052704;28;20037;-62
2022/07/19 11:08:57;;;;;;;2.45;1.38;;;35.10;27.30;;;;;;5066794;28;20048;-62
2022/07/19 11:11:24;;;;;;;6.00;1.48;;;35.20;26.90;;;;;;5034291;28;20025;-62
2022/07/19 11:13:52;;;;;;;8.57;1.00;;;35.20;27.50;;;;;;5029963;28;20060;-62
2022/07/19 11:16:18;;;;;;;7.90;1.10;;;35.30;27.40;;;;;;5047261;28;20059;-62
2022/07/19 11:18:45;;;;;;;1.30;0.93;;;35.30;26.70;;;;;;5066498;28;20024;-62
2022/07/19 11:21:13;;;;;;;7.43;1.35;;;35.30;26.40;;;;;;5046188;28;20036;-63
2022/07/19 11:23:39;;;;;;;8.45;1.00;;;35.40;26.30;;;;;;5066712;28;20036;-61
2022/07/19 11:26:06;;;;;;;4.68;1.10;;;35.40;26.20;;;;;;5052951;28;20041;-63
2022/07/19 11:28:32;;;;;;;8.20;1.30;;;35.50;26.30;;;;;;5065471;28;20438;-62
2022/07/19 11:30:58;;;;;;;2.90;1.00;;;35.50;25.60;;;;;;5048200;28;20034;-62
2022/07/19 11:33:23;;;;;;;5.78;1.25;;;35.70;25.90;;;;;;5066193;28;20032;-62
2022/07/19 11:36:16;;;;;;;5.38;0.93;;;35.80;25.90;;;;;;5049451;28;20119;-61
2022/07/19 11:38:43;;;;;;;4.72;0.98;;;35.80;26.00;;;;;;5026148;28;20555;-62
2022/07/19 11:41:29;;;;;;;2.47;0.70;;;35.90;25.90;;;;;;5051126;28;20039;-62
2022/07/19 11:43:57;;;;;;;1.48;0.82;;;36.00;25.50;;;;;;5044141;28;20037;-62
2022/07/19 11:46:26;;;;;;;4.63;1.05;;;36.20;25.30;;;;;;5057221;28;20040;-62
2022/07/19 11:49:00;;;;;;;1.35;0.82;;;36.20;25.20;;;;;;5054182;28;20044;-62
2022/07/19 11:51:27;;;;;;;5.25;1.10;;;36.30;24.20;;;;;;5038149;28;20037;-61
2022/07/19 11:53:55;;;;;;;14.02;1.65;;;36.30;24.40;;;;;;5054845;28;20035;-61
2022/07/19 11:56:23;;;;;;;1.20;0.90;;;36.30;24.70;;;;;;5043814;28;20033;-62
2022/07/19 11:58:54;;;;;;;7.00;0.90;;;36.40;24.50;;;;;;5058522;28;20040;-62
2022/07/19 12:01:30;;;;;;;1.20;0.80;;;36.40;25.20;;;;;;5037721;28;20038;-61
2022/07/19 12:04:00;;;;;;;9.43;1.00;;;36.40;23.30;;;;;;5056239;28;20096;-62
2022/07/19 12:06:41;;;;;;;2.75;0.80;;;36.50;23.90;;;;;;5053515;28;20034;-63
2022/07/19 12:09:12;;;;;;;1.60;0.90;;;36.50;24.10;;;;;;5035507;28;20488;-62
2022/07/19 12:11:40;;;;;;;1.00;0.65;;;36.60;24.60;;;;;;5039790;28;20032;-62
2022/07/19 12:14:22;;;;;;;2.60;0.95;;;36.70;24.50;;;;;;5045972;28;20075;-62
2022/07/19 12:16:49;;;;;;;7.18;0.90;;;36.70;23.40;;;;;;5046660;28;20038;-63
2022/07/19 12:19:19;;;;;;;5.07;0.80;;;36.80;23.70;;;;;;5051669;28;20037;-61
2022/07/19 12:21:45;;;;;;;1.60;0.82;;;36.90;24.20;;;;;;5050244;28;20152;-63
2022/07/19 12:24:17;;;;;;;4.43;0.88;;;37.00;23.90;;;;;;5065597;28;20025;-62
2022/07/19 12:26:51;;;;;;;4.85;1.02;;;37.10;23.10;;;;;;5039499;28;20060;-62
2022/07/19 12:29:26;;;;;;;1.85;0.85;;;37.10;23.40;;;;;;5043604;28;20063;-60
2022/07/19 12:31:56;;;;;;;1.42;0.68;;;37.20;22.90;;;;;;5043422;28;20029;-63
2022/07/19 12:34:22;;;;;;;3.35;1.15;;;37.20;23.00;;;;;;5051155;28;20036;-62
2022/07/19 12:36:48;;;;;;;4.28;1.13;;;37.30;23.00;;;;;;5044945;28;20104;-62
2022/07/19 12:39:23;;;;;;;1.25;0.82;;;37.30;22.50;;;;;;5052625;28;20052;-63
2022/07/19 12:42:06;;;;;;;7.05;0.95;;;37.40;22.60;;;;;;5033293;28;20030;-62
2022/07/19 12:44:34;;;;;;;5.55;0.90;;;37.50;21.50;;;;;;5065542;28;20025;-62
2022/07/19 12:47:00;;;;;;;3.95;1.00;;;37.50;22.00;;;;;;5045460;28;20025;-62
2022/07/19 12:49:40;;;;;;;5.88;0.73;;;37.50;21.70;;;;;;5056635;28;20439;-63
2022/07/19 12:52:06;;;;;;;2.67;1.20;;;37.50;22.10;;;;;;5036692;28;20033;-62